sensor_id;sensor_type;location;lat;lon;timestamp;temperature;humidity
13115;DHT22;6623;52.120;8.660;2024-02-26T00:01:35;20.20;43.40
13115;DHT22;6623;52.120;8.660;2024-02-26T00:04:01;20.20;43.40
13115;DHT22;6623;52.120;8.660;2024-02-26T00:06:28;20.20;43.40
13115;DHT22;6623;52.120;8.660;2024-02-26T00:08:54;20.20;43.40
13115;DHT22;6623;52.120;8.660;2024-02-26T00:11:19;20.20;43.40
13115;DHT22;6623;52.120;8.660;2024-02-26T00:13:45;20.20;43.40
13115;DHT22;6623;52.120;8.660;2024-02-26T00:16:10;20.20;43.40
13115;DHT22;6623;52.120;8.660;2024-02-26T00:18:36;20.20;44.00
13115;DHT22;6623;52.120;8.660;2024-02-26T00:21:02;20.20;43.30
13115;DHT22;6623;52.120;8.660;2024-02-26T00:23:28;20.20;43.40
13115;DHT22;6623;52.120;8.660;2024-02-26T00:25:54;20.20;43.30
13115;DHT22;6623;52.120;8.660;2024-02-26T00:28:20;20.20;43.40
13115;DHT22;6623;52.120;8.660;2024-02-26T00:30:46;20.20;43.30
13115;DHT22;6623;52.120;8.660;2024-02-26T00:33:12;20.20;43.30
13115;DHT22;6623;52.120;8.660;2024-02-26T00:35:38;20.20;43.30
13115;DHT22;6623;52.120;8.660;2024-02-26T00:38:04;20.20;43.30
13115;DHT22;6623;52.120;8.660;2024-02-26T00:40:29;20.20;43.30
13115;DHT22;6623;52.120;8.660;2024-02-26T00:42:55;20.20;43.30
13115;DHT22;6623;52.120;8.660;2024-02-26T00:45:20;20.20;43.30
13115;DHT22;6623;52.120;8.660;2024-02-26T00:47:46;20.20;43.30
13115;DHT22;6623;52.120;8.660;2024-02-26T00:50:13;20.20;43.30
13115;DHT22;6623;52.120;8.660;2024-02-26T00:52:38;20.20;43.30
13115;DHT22;6623;52.120;8.660;2024-02-26T00:55:04;20.20;43.30
13115;DHT22;6623;52.120;8.660;2024-02-26T00:57:30;20.20;43.30
13115;DHT22;6623;52.120;8.660;2024-02-26T00:59:55;20.20;43.30
13115;DHT22;6623;52.120;8.660;2024-02-26T01:02:22;20.20;43.30
13115;DHT22;6623;52.120;8.660;2024-02-26T01:04:47;20.20;43.30
13115;DHT22;6623;52.120;8.660;2024-02-26T01:07:13;20.20;43.30
13115;DHT22;6623;52.120;8.660;2024-02-26T01:09:39;20.20;43.30
13115;DHT22;6623;52.120;8.660;2024-02-26T01:12:04;20.20;43.20
13115;DHT22;6623;52.120;8.660;2024-02-26T01:14:30;20.20;43.20
13115;DHT22;6623;52.120;8.660;2024-02-26T01:16:55;20.20;43.20
13115;DHT22;6623;52.120;8.660;2024-02-26T01:19:21;20.20;43.20
13115;DHT22;6623;52.120;8.660;2024-02-26T01:21:46;20.20;43.20
13115;DHT22;6623;52.120;8.660;2024-02-26T01:24:12;20.20;43.20
13115;DHT22;6623;52.120;8.660;2024-02-26T01:26:38;20.20;43.20
13115;DHT22;6623;52.120;8.660;2024-02-26T01:29:04;20.20;43.20
13115;DHT22;6623;52.120;8.660;2024-02-26T01:31:29;20.20;43.10
13115;DHT22;6623;52.120;8.660;2024-02-26T01:33:55;20.20;43.10
13115;DHT22;6623;52.120;8.660;2024-02-26T01:36:20;20.20;43.20
13115;DHT22;6623;52.120;8.660;2024-02-26T01:38:46;20.20;43.20
13115;DHT22;6623;52.120;8.660;2024-02-26T01:41:14;20.20;43.10
13115;DHT22;6623;52.120;8.660;2024-02-26T01:43:39;20.20;43.10
13115;DHT22;6623;52.120;8.660;2024-02-26T01:46:06;20.20;43.10
13115;DHT22;6623;52.120;8.660;2024-02-26T01:48:32;20.20;43.10
13115;DHT22;6623;52.120;8.660;2024-02-26T01:50:58;20.20;43.10
13115;DHT22;6623;52.120;8.660;2024-02-26T01:53:24;20.10;43.00
13115;DHT22;6623;52.120;8.660;2024-02-26T01:55:50;20.10;43.10
13115;DHT22;6623;52.120;8.660;2024-02-26T01:58:16;20.20;43.10
13115;DHT22;6623;52.120;8.660;2024-02-26T02:00:42;20.10;43.00
13115;DHT22;6623;52.120;8.660;2024-02-26T02:03:07;20.10;43.10
13115;DHT22;6623;52.120;8.660;2024-02-26T02:05:33;20.10;43.10
13115;DHT22;6623;52.120;8.660;2024-02-26T02:08:00;20.10;43.00
13115;DHT22;6623;52.120;8.660;2024-02-26T02:10:26;20.20;43.00
13115;DHT22;6623;52.120;8.660;2024-02-26T02:12:53;20.10;43.00
13115;DHT22;6623;52.120;8.660;2024-02-26T02:15:18;20.10;43.00
13115;DHT22;6623;52.120;8.660;2024-02-26T02:17:44;20.10;43.00
13115;DHT22;6623;52.120;8.660;2024-02-26T02:20:16;20.10;43.00
13115;DHT22;6623;52.120;8.660;2024-02-26T02:22:45;20.10;43.00
13115;DHT22;6623;52.120;8.660;2024-02-26T02:25:11;20.10;43.00
13115;DHT22;6623;52.120;8.660;2024-02-26T02:27:36;20.10;43.00
13115;DHT22;6623;52.120;8.660;2024-02-26T02:30:02;20.10;43.00
13115;DHT22;6623;52.120;8.660;2024-02-26T02:32:29;20.10;43.00
13115;DHT22;6623;52.120;8.660;2024-02-26T02:34:55;20.10;43.00
13115;DHT22;6623;52.120;8.660;2024-02-26T02:37:21;20.10;42.90
13115;DHT22;6623;52.120;8.660;2024-02-26T02:39:46;20.10;42.90
13115;DHT22;6623;52.120;8.660;2024-02-26T02:42:13;20.10;42.90
13115;DHT22;6623;52.120;8.660;2024-02-26T02:44:38;20.20;43.00
13115;DHT22;6623;52.120;8.660;2024-02-26T02:47:04;20.10;42.90
13115;DHT22;6623;52.120;8.660;2024-02-26T02:49:29;20.10;42.90
13115;DHT22;6623;52.120;8.660;2024-02-26T02:51:55;20.10;42.90
13115;DHT22;6623;52.120;8.660;2024-02-26T02:54:22;20.10;42.90
13115;DHT22;6623;52.120;8.660;2024-02-26T02:56:48;20.10;42.80
13115;DHT22;6623;52.120;8.660;2024-02-26T02:59:13;20.10;42.80
13115;DHT22;6623;52.120;8.660;2024-02-26T03:01:39;20.10;42.80
13115;DHT22;6623;52.120;8.660;2024-02-26T03:04:04;20.10;42.80
13115;DHT22;6623;52.120;8.660;2024-02-26T03:06:30;20.10;42.80
13115;DHT22;6623;52.120;8.660;2024-02-26T03:08:55;20.10;42.80
13115;DHT22;6623;52.120;8.660;2024-02-26T03:11:21;20.10;42.80
13115;DHT22;6623;52.120;8.660;2024-02-26T03:13:46;20.10;42.80
13115;DHT22;6623;52.120;8.660;2024-02-26T03:16:12;20.10;42.80
13115;DHT22;6623;52.120;8.660;2024-02-26T03:18:40;20.10;42.80
13115;DHT22;6623;52.120;8.660;2024-02-26T03:21:07;20.10;42.80
13115;DHT22;6623;52.120;8.660;2024-02-26T03:23:32;20.10;42.80
13115;DHT22;6623;52.120;8.660;2024-02-26T03:26:02;20.10;42.80
13115;DHT22;6623;52.120;8.660;2024-02-26T03:28:28;20.10;42.80
13115;DHT22;6623;52.120;8.660;2024-02-26T03:30:53;20.10;42.80
13115;DHT22;6623;52.120;8.660;2024-02-26T03:33:19;20.10;42.70
13115;DHT22;6623;52.120;8.660;2024-02-26T03:35:44;20.10;42.70
13115;DHT22;6623;52.120;8.660;2024-02-26T03:38:09;20.10;42.80
13115;DHT22;6623;52.120;8.660;2024-02-26T03:40:35;20.10;42.70
13115;DHT22;6623;52.120;8.660;2024-02-26T03:43:00;20.10;42.70
13115;DHT22;6623;52.120;8.660;2024-02-26T03:45:26;20.10;42.70
13115;DHT22;6623;52.120;8.660;2024-02-26T03:47:52;20.10;42.70
13115;DHT22;6623;52.120;8.660;2024-02-26T03:50:17;20.10;42.70
13115;DHT22;6623;52.120;8.660;2024-02-26T03:52:43;20.10;42.70
13115;DHT22;6623;52.120;8.660;2024-02-26T03:55:08;20.10;42.70
13115;DHT22;6623;52.120;8.660;2024-02-26T03:57:36;20.10;42.60
13115;DHT22;6623;52.120;8.660;2024-02-26T04:00:01;20.10;42.70
13115;DHT22;6623;52.120;8.660;2024-02-26T04:02:27;20.10;42.60
13115;DHT22;6623;52.120;8.660;2024-02-26T04:04:52;20.10;42.60
13115;DHT22;6623;52.120;8.660;2024-02-26T04:07:18;20.10;42.60
13115;DHT22;6623;52.120;8.660;2024-02-26T04:09:44;20.10;42.60
13115;DHT22;6623;52.120;8.660;2024-02-26T04:12:10;20.10;42.60
13115;DHT22;6623;52.120;8.660;2024-02-26T04:14:35;20.10;42.60
13115;DHT22;6623;52.120;8.660;2024-02-26T04:17:01;20.10;42.60
13115;DHT22;6623;52.120;8.660;2024-02-26T04:19:27;20.10;42.60
13115;DHT22;6623;52.120;8.660;2024-02-26T04:21:52;20.10;42.60
13115;DHT22;6623;52.120;8.660;2024-02-26T04:24:18;20.10;42.60
13115;DHT22;6623;52.120;8.660;2024-02-26T04:26:43;20.10;42.60
13115;DHT22;6623;52.120;8.660;2024-02-26T04:29:09;20.10;42.60
13115;DHT22;6623;52.120;8.660;2024-02-26T04:31:34;20.10;42.50
13115;DHT22;6623;52.120;8.660;2024-02-26T04:34:00;20.10;42.50
13115;DHT22;6623;52.120;8.660;2024-02-26T04:36:25;20.10;42.50
13115;DHT22;6623;52.120;8.660;2024-02-26T04:38:53;20.10;42.50
13115;DHT22;6623;52.120;8.660;2024-02-26T04:41:22;20.10;42.50
13115;DHT22;6623;52.120;8.660;2024-02-26T04:43:47;20.10;42.50
13115;DHT22;6623;52.120;8.660;2024-02-26T04:46:13;20.00;42.40
13115;DHT22;6623;52.120;8.660;2024-02-26T04:48:39;20.00;42.50
13115;DHT22;6623;52.120;8.660;2024-02-26T04:51:04;20.00;42.50
13115;DHT22;6623;52.120;8.660;2024-02-26T04:53:30;20.00;42.50
13115;DHT22;6623;52.120;8.660;2024-02-26T04:55:55;20.00;42.40
13115;DHT22;6623;52.120;8.660;2024-02-26T04:58:21;20.00;42.50
13115;DHT22;6623;52.120;8.660;2024-02-26T05:00:46;20.00;42.40
13115;DHT22;6623;52.120;8.660;2024-02-26T05:03:12;20.00;42.50
13115;DHT22;6623;52.120;8.660;2024-02-26T05:05:39;20.00;42.40
13115;DHT22;6623;52.120;8.660;2024-02-26T05:08:06;20.00;42.40
13115;DHT22;6623;52.120;8.660;2024-02-26T05:10:32;20.00;42.40
13115;DHT22;6623;52.120;8.660;2024-02-26T05:12:57;20.00;42.40
13115;DHT22;6623;52.120;8.660;2024-02-26T05:15:23;20.00;42.40
13115;DHT22;6623;52.120;8.660;2024-02-26T05:17:48;20.00;42.50
13115;DHT22;6623;52.120;8.660;2024-02-26T05:20:14;20.00;42.40
13115;DHT22;6623;52.120;8.660;2024-02-26T05:22:39;20.00;42.40
13115;DHT22;6623;52.120;8.660;2024-02-26T05:25:05;20.00;42.40
13115;DHT22;6623;52.120;8.660;2024-02-26T05:27:30;20.00;42.40
13115;DHT22;6623;52.120;8.660;2024-02-26T05:29:56;20.00;42.40
13115;DHT22;6623;52.120;8.660;2024-02-26T05:32:22;20.00;42.40
13115;DHT22;6623;52.120;8.660;2024-02-26T05:34:47;20.10;42.40
13115;DHT22;6623;52.120;8.660;2024-02-26T05:37:12;20.00;42.40
13115;DHT22;6623;52.120;8.660;2024-02-26T05:39:38;20.00;42.40
13115;DHT22;6623;52.120;8.660;2024-02-26T05:42:04;20.00;42.40
13115;DHT22;6623;52.120;8.660;2024-02-26T05:44:29;20.00;42.40
13115;DHT22;6623;52.120;8.660;2024-02-26T05:46:55;20.00;42.40
13115;DHT22;6623;52.120;8.660;2024-02-26T05:49:24;20.00;42.40
13115;DHT22;6623;52.120;8.660;2024-02-26T05:51:50;20.00;42.40
13115;DHT22;6623;52.120;8.660;2024-02-26T05:54:15;20.00;42.40
13115;DHT22;6623;52.120;8.660;2024-02-26T05:56:41;20.00;42.40
13115;DHT22;6623;52.120;8.660;2024-02-26T05:59:06;20.00;42.40
13115;DHT22;6623;52.120;8.660;2024-02-26T06:01:32;20.00;42.40
13115;DHT22;6623;52.120;8.660;2024-02-26T06:03:58;20.00;42.40
13115;DHT22;6623;52.120;8.660;2024-02-26T06:06:24;20.00;42.40
13115;DHT22;6623;52.120;8.660;2024-02-26T06:08:49;20.00;42.40
13115;DHT22;6623;52.120;8.660;2024-02-26T06:11:15;20.00;42.50
13115;DHT22;6623;52.120;8.660;2024-02-26T06:13:40;20.00;42.30
13115;DHT22;6623;52.120;8.660;2024-02-26T06:16:08;20.00;42.40
13115;DHT22;6623;52.120;8.660;2024-02-26T06:18:33;20.00;42.40
13115;DHT22;6623;52.120;8.660;2024-02-26T06:20:59;20.00;42.40
13115;DHT22;6623;52.120;8.660;2024-02-26T06:23:25;20.00;42.40
13115;DHT22;6623;52.120;8.660;2024-02-26T06:25:51;20.00;42.40
13115;DHT22;6623;52.120;8.660;2024-02-26T06:28:17;20.00;42.30
13115;DHT22;6623;52.120;8.660;2024-02-26T06:30:43;20.00;42.30
13115;DHT22;6623;52.120;8.660;2024-02-26T06:33:08;20.00;42.30
13115;DHT22;6623;52.120;8.660;2024-02-26T06:35:34;20.00;42.30
13115;DHT22;6623;52.120;8.660;2024-02-26T06:37:59;20.00;42.30
13115;DHT22;6623;52.120;8.660;2024-02-26T06:40:25;20.00;42.30
13115;DHT22;6623;52.120;8.660;2024-02-26T06:42:51;20.00;42.30
13115;DHT22;6623;52.120;8.660;2024-02-26T06:45:17;20.00;42.30
13115;DHT22;6623;52.120;8.660;2024-02-26T06:47:42;20.00;42.90
13115;DHT22;6623;52.120;8.660;2024-02-26T06:50:08;20.00;42.30
13115;DHT22;6623;52.120;8.660;2024-02-26T06:52:34;20.00;42.30
13115;DHT22;6623;52.120;8.660;2024-02-26T06:54:59;20.00;42.30
13115;DHT22;6623;52.120;8.660;2024-02-26T06:57:25;20.00;42.30
13115;DHT22;6623;52.120;8.660;2024-02-26T06:59:51;20.00;42.30
13115;DHT22;6623;52.120;8.660;2024-02-26T07:02:17;20.00;42.30
13115;DHT22;6623;52.120;8.660;2024-02-26T07:04:43;20.00;42.30
13115;DHT22;6623;52.120;8.660;2024-02-26T07:07:09;20.00;42.30
13115;DHT22;6623;52.120;8.660;2024-02-26T07:09:34;20.00;42.30
13115;DHT22;6623;52.120;8.660;2024-02-26T07:12:00;20.00;42.30
13115;DHT22;6623;52.120;8.660;2024-02-26T07:14:25;20.00;42.30
13115;DHT22;6623;52.120;8.660;2024-02-26T07:16:51;20.00;42.30
13115;DHT22;6623;52.120;8.660;2024-02-26T07:19:16;20.00;42.30
13115;DHT22;6623;52.120;8.660;2024-02-26T07:21:42;20.00;42.30
13115;DHT22;6623;52.120;8.660;2024-02-26T07:24:08;20.00;42.30
13115;DHT22;6623;52.120;8.660;2024-02-26T07:26:33;20.00;42.20
13115;DHT22;6623;52.120;8.660;2024-02-26T07:28:59;20.00;42.20
13115;DHT22;6623;52.120;8.660;2024-02-26T07:31:25;20.00;42.30
13115;DHT22;6623;52.120;8.660;2024-02-26T07:33:51;20.00;42.30
13115;DHT22;6623;52.120;8.660;2024-02-26T07:36:17;20.00;42.30
13115;DHT22;6623;52.120;8.660;2024-02-26T07:38:42;20.00;42.20
13115;DHT22;6623;52.120;8.660;2024-02-26T07:41:08;20.00;42.20
13115;DHT22;6623;52.120;8.660;2024-02-26T07:43:34;19.90;42.20
13115;DHT22;6623;52.120;8.660;2024-02-26T07:45:59;19.90;42.20
13115;DHT22;6623;52.120;8.660;2024-02-26T07:48:25;19.90;42.20
13115;DHT22;6623;52.120;8.660;2024-02-26T07:50:50;20.00;42.30
13115;DHT22;6623;52.120;8.660;2024-02-26T07:53:16;19.90;42.20
13115;DHT22;6623;52.120;8.660;2024-02-26T07:55:41;19.90;42.20
13115;DHT22;6623;52.120;8.660;2024-02-26T07:58:07;19.90;42.20
13115;DHT22;6623;52.120;8.660;2024-02-26T08:00:32;19.90;42.20
13115;DHT22;6623;52.120;8.660;2024-02-26T08:02:58;19.90;42.30
13115;DHT22;6623;52.120;8.660;2024-02-26T08:05:23;19.90;42.90
13115;DHT22;6623;52.120;8.660;2024-02-26T08:07:50;19.90;42.30
13115;DHT22;6623;52.120;8.660;2024-02-26T08:10:15;19.90;42.30
13115;DHT22;6623;52.120;8.660;2024-02-26T08:12:41;19.90;42.30
13115;DHT22;6623;52.120;8.660;2024-02-26T08:15:07;19.90;42.30
13115;DHT22;6623;52.120;8.660;2024-02-26T08:17:33;19.90;42.30
13115;DHT22;6623;52.120;8.660;2024-02-26T08:19:59;19.90;42.30
13115;DHT22;6623;52.120;8.660;2024-02-26T08:22:25;19.90;42.40
13115;DHT22;6623;52.120;8.660;2024-02-26T08:24:51;19.90;42.30
13115;DHT22;6623;52.120;8.660;2024-02-26T08:27:16;19.90;42.40
13115;DHT22;6623;52.120;8.660;2024-02-26T08:29:42;19.90;42.40
13115;DHT22;6623;52.120;8.660;2024-02-26T08:32:08;19.90;42.40
13115;DHT22;6623;52.120;8.660;2024-02-26T08:34:34;19.90;42.40
13115;DHT22;6623;52.120;8.660;2024-02-26T08:36:59;19.90;42.30
13115;DHT22;6623;52.120;8.660;2024-02-26T08:39:25;19.80;42.30
13115;DHT22;6623;52.120;8.660;2024-02-26T08:41:51;19.90;42.30
13115;DHT22;6623;52.120;8.660;2024-02-26T08:44:16;19.90;42.30
13115;DHT22;6623;52.120;8.660;2024-02-26T08:46:42;19.90;42.30
13115;DHT22;6623;52.120;8.660;2024-02-26T08:49:07;19.80;42.30
13115;DHT22;6623;52.120;8.660;2024-02-26T08:51:33;19.80;42.30
13115;DHT22;6623;52.120;8.660;2024-02-26T08:53:58;19.90;42.40
13115;DHT22;6623;52.120;8.660;2024-02-26T08:56:24;19.90;42.40
13115;DHT22;6623;52.120;8.660;2024-02-26T08:58:49;19.90;42.30
13115;DHT22;6623;52.120;8.660;2024-02-26T09:01:18;20.00;42.30
13115;DHT22;6623;52.120;8.660;2024-02-26T09:03:44;20.00;42.30
13115;DHT22;6623;52.120;8.660;2024-02-26T09:06:09;20.00;42.20
13115;DHT22;6623;52.120;8.660;2024-02-26T09:08:37;20.10;42.10
13115;DHT22;6623;52.120;8.660;2024-02-26T09:11:03;20.20;42.10
13115;DHT22;6623;52.120;8.660;2024-02-26T09:13:28;20.20;42.00
13115;DHT22;6623;52.120;8.660;2024-02-26T09:15:54;20.30;42.00
13115;DHT22;6623;52.120;8.660;2024-02-26T09:18:20;20.40;41.90
13115;DHT22;6623;52.120;8.660;2024-02-26T09:20:45;20.50;41.80
13115;DHT22;6623;52.120;8.660;2024-02-26T09:23:11;20.50;41.70
13115;DHT22;6623;52.120;8.660;2024-02-26T09:25:37;20.60;41.60
13115;DHT22;6623;52.120;8.660;2024-02-26T09:28:02;20.70;41.50
13115;DHT22;6623;52.120;8.660;2024-02-26T09:30:28;20.80;41.40
13115;DHT22;6623;52.120;8.660;2024-02-26T09:32:54;20.80;41.30
13115;DHT22;6623;52.120;8.660;2024-02-26T09:35:19;20.90;41.20
13115;DHT22;6623;52.120;8.660;2024-02-26T09:37:46;20.90;41.10
13115;DHT22;6623;52.120;8.660;2024-02-26T09:40:14;21.00;41.00
13115;DHT22;6623;52.120;8.660;2024-02-26T09:42:46;21.10;40.90
13115;DHT22;6623;52.120;8.660;2024-02-26T09:45:18;21.10;40.80
13115;DHT22;6623;52.120;8.660;2024-02-26T09:47:45;21.20;40.70
13115;DHT22;6623;52.120;8.660;2024-02-26T09:50:13;21.20;40.60
13115;DHT22;6623;52.120;8.660;2024-02-26T09:52:41;21.30;40.60
13115;DHT22;6623;52.120;8.660;2024-02-26T09:55:08;21.30;40.60
13115;DHT22;6623;52.120;8.660;2024-02-26T09:57:36;21.30;40.50
13115;DHT22;6623;52.120;8.660;2024-02-26T10:00:03;21.30;40.50
13115;DHT22;6623;52.120;8.660;2024-02-26T10:02:36;21.20;40.50
13115;DHT22;6623;52.120;8.660;2024-02-26T10:05:04;21.20;40.50
13115;DHT22;6623;52.120;8.660;2024-02-26T10:07:33;21.20;40.60
13115;DHT22;6623;52.120;8.660;2024-02-26T10:09:59;21.10;40.50
13115;DHT22;6623;52.120;8.660;2024-02-26T10:12:26;21.10;40.50
13115;DHT22;6623;52.120;8.660;2024-02-26T10:14:53;21.00;40.50
13115;DHT22;6623;52.120;8.660;2024-02-26T10:17:19;21.00;40.50
13115;DHT22;6623;52.120;8.660;2024-02-26T10:19:45;20.90;40.60
13115;DHT22;6623;52.120;8.660;2024-02-26T10:22:10;20.90;40.70
13115;DHT22;6623;52.120;8.660;2024-02-26T10:24:36;20.80;40.70
13115;DHT22;6623;52.120;8.660;2024-02-26T10:27:02;20.80;40.80
13115;DHT22;6623;52.120;8.660;2024-02-26T10:29:28;20.70;40.80
13115;DHT22;6623;52.120;8.660;2024-02-26T10:31:54;20.70;40.90
13115;DHT22;6623;52.120;8.660;2024-02-26T10:34:20;20.60;40.90
13115;DHT22;6623;52.120;8.660;2024-02-26T10:36:46;20.60;40.90
13115;DHT22;6623;52.120;8.660;2024-02-26T10:39:14;20.50;41.00
13115;DHT22;6623;52.120;8.660;2024-02-26T10:41:41;20.50;41.00
13115;DHT22;6623;52.120;8.660;2024-02-26T10:44:09;20.50;41.10
13115;DHT22;6623;52.120;8.660;2024-02-26T10:46:36;20.40;41.10
13115;DHT22;6623;52.120;8.660;2024-02-26T10:49:02;20.40;41.10
13115;DHT22;6623;52.120;8.660;2024-02-26T10:51:29;20.30;41.10
13115;DHT22;6623;52.120;8.660;2024-02-26T10:53:57;20.30;41.20
13115;DHT22;6623;52.120;8.660;2024-02-26T10:56:28;20.30;41.30
13115;DHT22;6623;52.120;8.660;2024-02-26T10:58:55;20.30;41.30
13115;DHT22;6623;52.120;8.660;2024-02-26T11:01:21;20.20;41.30
13115;DHT22;6623;52.120;8.660;2024-02-26T11:03:52;20.20;41.30
13115;DHT22;6623;52.120;8.660;2024-02-26T11:06:19;20.20;41.40
13115;DHT22;6623;52.120;8.660;2024-02-26T11:08:50;20.20;41.40
13115;DHT22;6623;52.120;8.660;2024-02-26T11:11:17;20.20;41.50
13115;DHT22;6623;52.120;8.660;2024-02-26T11:13:45;20.10;41.50
13115;DHT22;6623;52.120;8.660;2024-02-26T11:16:16;20.10;41.50
13115;DHT22;6623;52.120;8.660;2024-02-26T11:18:41;20.10;41.50
13115;DHT22;6623;52.120;8.660;2024-02-26T11:21:08;20.10;41.50
13115;DHT22;6623;52.120;8.660;2024-02-26T11:23:34;20.10;41.60
13115;DHT22;6623;52.120;8.660;2024-02-26T11:26:04;20.00;41.60
13115;DHT22;6623;52.120;8.660;2024-02-26T11:28:32;20.00;41.60
13115;DHT22;6623;52.120;8.660;2024-02-26T11:30:59;20.00;41.60
13115;DHT22;6623;52.120;8.660;2024-02-26T11:33:26;20.00;41.70
13115;DHT22;6623;52.120;8.660;2024-02-26T11:35:53;20.00;41.70
13115;DHT22;6623;52.120;8.660;2024-02-26T11:38:24;20.00;41.70
13115;DHT22;6623;52.120;8.660;2024-02-26T11:40:51;20.00;41.70
13115;DHT22;6623;52.120;8.660;2024-02-26T11:43:18;20.00;41.80
13115;DHT22;6623;52.120;8.660;2024-02-26T11:48:14;20.00;41.80
13115;DHT22;6623;52.120;8.660;2024-02-26T11:50:42;19.90;41.80
13115;DHT22;6623;52.120;8.660;2024-02-26T11:58:43;19.90;41.80
13115;DHT22;6623;52.120;8.660;2024-02-26T12:01:41;19.90;41.90
13115;DHT22;6623;52.120;8.660;2024-02-26T12:04:29;19.90;41.90
13115;DHT22;6623;52.120;8.660;2024-02-26T12:06:58;19.90;41.90
13115;DHT22;6623;52.120;8.660;2024-02-26T12:09:39;19.90;41.90
13115;DHT22;6623;52.120;8.660;2024-02-26T12:12:09;19.90;42.00
13115;DHT22;6623;52.120;8.660;2024-02-26T12:14:51;19.80;42.20
13115;DHT22;6623;52.120;8.660;2024-02-26T12:17:20;19.90;42.00
13115;DHT22;6623;52.120;8.660;2024-02-26T12:19:46;19.80;42.00
13115;DHT22;6623;52.120;8.660;2024-02-26T12:22:13;19.80;42.00
13115;DHT22;6623;52.120;8.660;2024-02-26T12:24:39;19.80;42.00
13115;DHT22;6623;52.120;8.660;2024-02-26T12:27:05;19.80;42.00
13115;DHT22;6623;52.120;8.660;2024-02-26T12:29:31;19.80;42.00
13115;DHT22;6623;52.120;8.660;2024-02-26T12:31:57;19.80;42.00
13115;DHT22;6623;52.120;8.660;2024-02-26T12:34:23;19.80;42.00
13115;DHT22;6623;52.120;8.660;2024-02-26T12:36:49;19.80;42.00
13115;DHT22;6623;52.120;8.660;2024-02-26T12:39:14;19.80;42.10
13115;DHT22;6623;52.120;8.660;2024-02-26T12:41:40;19.80;42.00
13115;DHT22;6623;52.120;8.660;2024-02-26T12:44:07;19.80;42.10
13115;DHT22;6623;52.120;8.660;2024-02-26T12:46:33;19.80;42.10
13115;DHT22;6623;52.120;8.660;2024-02-26T12:48:59;19.80;42.10
13115;DHT22;6623;52.120;8.660;2024-02-26T12:51:26;19.80;42.10
13115;DHT22;6623;52.120;8.660;2024-02-26T12:53:52;19.80;42.10
13115;DHT22;6623;52.120;8.660;2024-02-26T12:56:18;19.80;42.10
13115;DHT22;6623;52.120;8.660;2024-02-26T12:58:45;19.80;42.10
13115;DHT22;6623;52.120;8.660;2024-02-26T13:01:14;19.80;42.10
13115;DHT22;6623;52.120;8.660;2024-02-26T13:03:41;19.80;42.20
13115;DHT22;6623;52.120;8.660;2024-02-26T13:06:07;19.80;42.20
13115;DHT22;6623;52.120;8.660;2024-02-26T13:08:33;19.80;42.20
13115;DHT22;6623;52.120;8.660;2024-02-26T13:10:59;19.80;42.20
13115;DHT22;6623;52.120;8.660;2024-02-26T13:13:25;19.70;42.10
13115;DHT22;6623;52.120;8.660;2024-02-26T13:16:10;19.70;42.10
13115;DHT22;6623;52.120;8.660;2024-02-26T13:18:39;19.70;42.10
13115;DHT22;6623;52.120;8.660;2024-02-26T13:21:13;19.80;42.20
13115;DHT22;6623;52.120;8.660;2024-02-26T13:23:39;19.70;42.10
13115;DHT22;6623;52.120;8.660;2024-02-26T13:26:06;19.70;42.20
13115;DHT22;6623;52.120;8.660;2024-02-26T13:28:33;19.70;42.20
13115;DHT22;6623;52.120;8.660;2024-02-26T13:31:00;19.70;42.10
13115;DHT22;6623;52.120;8.660;2024-02-26T13:33:27;19.70;42.10
13115;DHT22;6623;52.120;8.660;2024-02-26T13:35:57;19.70;42.10
13115;DHT22;6623;52.120;8.660;2024-02-26T13:38:23;19.70;42.20
13115;DHT22;6623;52.120;8.660;2024-02-26T13:40:49;19.70;42.10
13115;DHT22;6623;52.120;8.660;2024-02-26T13:43:15;19.70;42.10
13115;DHT22;6623;52.120;8.660;2024-02-26T13:45:40;19.70;42.20
13115;DHT22;6623;52.120;8.660;2024-02-26T13:48:07;19.70;42.20
13115;DHT22;6623;52.120;8.660;2024-02-26T13:50:35;19.70;42.20
13115;DHT22;6623;52.120;8.660;2024-02-26T13:53:01;19.70;42.20
13115;DHT22;6623;52.120;8.660;2024-02-26T13:55:26;19.70;42.20
13115;DHT22;6623;52.120;8.660;2024-02-26T13:57:56;19.70;42.20
13115;DHT22;6623;52.120;8.660;2024-02-26T14:00:22;19.70;42.20
13115;DHT22;6623;52.120;8.660;2024-02-26T14:02:48;19.70;42.20
13115;DHT22;6623;52.120;8.660;2024-02-26T14:05:14;19.70;42.20
13115;DHT22;6623;52.120;8.660;2024-02-26T14:07:40;19.70;42.20
13115;DHT22;6623;52.120;8.660;2024-02-26T14:10:06;19.70;42.20
13115;DHT22;6623;52.120;8.660;2024-02-26T14:12:31;19.70;42.20
13115;DHT22;6623;52.120;8.660;2024-02-26T14:14:57;19.70;42.20
13115;DHT22;6623;52.120;8.660;2024-02-26T14:17:26;19.70;42.20
13115;DHT22;6623;52.120;8.660;2024-02-26T14:19:51;19.70;42.20
13115;DHT22;6623;52.120;8.660;2024-02-26T14:22:17;19.70;42.20
13115;DHT22;6623;52.120;8.660;2024-02-26T14:24:42;19.70;42.20
13115;DHT22;6623;52.120;8.660;2024-02-26T14:27:10;19.70;42.20
13115;DHT22;6623;52.120;8.660;2024-02-26T14:29:35;19.70;42.20
13115;DHT22;6623;52.120;8.660;2024-02-26T14:32:03;19.70;42.20
13115;DHT22;6623;52.120;8.660;2024-02-26T14:34:29;19.70;42.20
13115;DHT22;6623;52.120;8.660;2024-02-26T14:36:54;19.70;42.20
13115;DHT22;6623;52.120;8.660;2024-02-26T14:39:21;19.70;42.20
13115;DHT22;6623;52.120;8.660;2024-02-26T14:41:46;19.70;42.20
13115;DHT22;6623;52.120;8.660;2024-02-26T14:44:11;19.70;42.20
13115;DHT22;6623;52.120;8.660;2024-02-26T14:46:38;19.70;42.20
13115;DHT22;6623;52.120;8.660;2024-02-26T14:49:03;19.70;42.20
13115;DHT22;6623;52.120;8.660;2024-02-26T14:51:29;19.70;42.20
13115;DHT22;6623;52.120;8.660;2024-02-26T14:53:54;19.70;42.20
13115;DHT22;6623;52.120;8.660;2024-02-26T14:56:20;19.60;42.20
13115;DHT22;6623;52.120;8.660;2024-02-26T14:58:45;19.70;42.20
13115;DHT22;6623;52.120;8.660;2024-02-26T15:01:11;19.70;42.20
13115;DHT22;6623;52.120;8.660;2024-02-26T15:03:37;19.70;42.30
13115;DHT22;6623;52.120;8.660;2024-02-26T15:06:03;19.60;42.20
13115;DHT22;6623;52.120;8.660;2024-02-26T15:08:28;19.70;42.30
13115;DHT22;6623;52.120;8.660;2024-02-26T15:10:54;19.60;42.20
13115;DHT22;6623;52.120;8.660;2024-02-26T15:13:19;19.70;42.20
13115;DHT22;6623;52.120;8.660;2024-02-26T15:15:46;19.60;42.20
13115;DHT22;6623;52.120;8.660;2024-02-26T15:18:11;19.70;42.20
13115;DHT22;6623;52.120;8.660;2024-02-26T15:20:41;19.60;42.20
13115;DHT22;6623;52.120;8.660;2024-02-26T15:23:08;19.60;42.20
13115;DHT22;6623;52.120;8.660;2024-02-26T15:25:34;19.70;42.30
13115;DHT22;6623;52.120;8.660;2024-02-26T15:27:59;19.60;42.20
13115;DHT22;6623;52.120;8.660;2024-02-26T15:30:25;19.60;42.20
13115;DHT22;6623;52.120;8.660;2024-02-26T15:32:52;19.60;42.20
13115;DHT22;6623;52.120;8.660;2024-02-26T15:35:18;19.70;42.30
13115;DHT22;6623;52.120;8.660;2024-02-26T15:37:43;19.60;42.20
13115;DHT22;6623;52.120;8.660;2024-02-26T15:40:09;19.60;42.20
13115;DHT22;6623;52.120;8.660;2024-02-26T15:42:35;19.60;42.20
13115;DHT22;6623;52.120;8.660;2024-02-26T15:45:01;19.60;42.20
13115;DHT22;6623;52.120;8.660;2024-02-26T15:47:26;19.70;42.30